createdAt,value
2022-12-20T00:01:31.575Z,51.83
2022-12-20T00:04:03.021Z,47.83
2022-12-20T00:06:30.674Z,34.20
2022-12-20T00:09:01.733Z,31.55
2022-12-20T00:11:30.421Z,43.80
2022-12-20T00:13:58.924Z,97.45
2022-12-20T00:16:28.457Z,84.25
2022-12-20T00:19:03.784Z,85.90
2022-12-20T00:21:33.646Z,95.00
2022-12-20T00:24:01.271Z,103.78
2022-12-20T00:26:32.531Z,61.98
2022-12-20T00:29:01.616Z,43.15
2022-12-20T00:31:31.114Z,47.08
2022-12-20T00:34:00.409Z,41.60
2022-12-20T00:36:31.344Z,45.00
2022-12-20T00:39:00.295Z,54.10
2022-12-20T00:41:32.204Z,61.83
2022-12-20T00:44:00.788Z,77.85
2022-12-20T00:46:31.152Z,150.78
2022-12-20T00:49:00.273Z,141.45
2022-12-20T00:51:32.060Z,146.22
2022-12-20T00:53:59.704Z,104.67
2022-12-20T00:56:27.658Z,66.20
2022-12-20T00:58:59.779Z,86.08
2022-12-20T01:01:31.937Z,91.57
2022-12-20T01:04:01.005Z,76.10
2022-12-20T01:06:30.009Z,78.07
2022-12-20T01:08:58.256Z,80.75
2022-12-20T01:11:32.552Z,81.57
2022-12-20T01:14:05.182Z,103.10
2022-12-20T01:16:42.772Z,90.53
2022-12-20T01:19:14.909Z,70.03
2022-12-20T01:21:45.567Z,61.68
2022-12-20T01:24:17.053Z,88.72
2022-12-20T01:26:46.142Z,73.50
2022-12-20T01:29:15.530Z,50.90
2022-12-20T01:31:49.068Z,55.43
2022-12-20T01:34:19.906Z,55.95
2022-12-20T01:36:49.331Z,55.00
2022-12-20T01:39:18.040Z,50.08
2022-12-20T01:41:48.502Z,50.55
2022-12-20T01:44:24.960Z,44.23
2022-12-20T01:46:55.869Z,49.45
2022-12-20T01:49:38.569Z,61.00
2022-12-20T01:52:29.856Z,52.80
2022-12-20T01:55:08.091Z,37.83
2022-12-20T01:57:56.527Z,32.25
2022-12-20T02:00:24.754Z,28.15
2022-12-20T02:02:52.530Z,49.95
2022-12-20T02:05:23.544Z,42.53
2022-12-20T02:07:54.988Z,38.35
2022-12-20T02:10:27.537Z,45.98
2022-12-20T02:13:00.639Z,29.55
2022-12-20T02:15:45.962Z,31.05
2022-12-20T02:18:44.440Z,43.33
2022-12-20T02:21:26.304Z,34.73
2022-12-20T02:24:23.677Z,35.43
2022-12-20T02:27:14.815Z,38.67
2022-12-20T02:30:12.685Z,69.03
2022-12-20T02:33:12.784Z,73.28
2022-12-20T02:35:42.338Z,57.43
2022-12-20T02:38:31.026Z,58.63
2022-12-20T02:41:04.287Z,50.70
2022-12-20T02:43:54.196Z,40.75
2022-12-20T02:46:24.175Z,31.12
2022-12-20T02:48:54.752Z,24.30
2022-12-20T02:51:24.299Z,17.67
2022-12-20T02:53:52.392Z,17.07
2022-12-20T02:56:32.131Z,18.27
2022-12-20T02:59:07.967Z,23.02
2022-12-20T03:01:52.153Z,16.60
2022-12-20T03:04:25.262Z,22.48
2022-12-20T03:07:06.757Z,42.15
2022-12-20T03:09:41.496Z,50.05
2022-12-20T03:12:11.525Z,33.13
2022-12-20T03:14:40.287Z,18.50
2022-12-20T03:17:09.674Z,14.78
2022-12-20T03:19:39.107Z,14.10
2022-12-20T03:22:07.281Z,22.27
2022-12-20T03:24:34.833Z,17.32
2022-12-20T03:27:04.263Z,18.90
2022-12-20T03:29:32.171Z,19.15
2022-12-20T03:32:00.280Z,21.33
2022-12-20T03:34:28.123Z,22.27
2022-12-20T03:36:56.078Z,26.68
2022-12-20T03:39:24.062Z,85.57
2022-12-20T03:41:52.812Z,38.83
2022-12-20T03:44:20.823Z,25.35
2022-12-20T03:46:50.011Z,24.85
2022-12-20T03:49:18.153Z,26.62
2022-12-20T03:51:47.471Z,39.10
2022-12-20T03:54:15.449Z,34.15
2022-12-20T03:56:51.645Z,35.80
2022-12-20T03:59:19.958Z,36.53
2022-12-20T04:01:48.060Z,33.35
2022-12-20T04:04:16.330Z,45.35
2022-12-20T04:06:44.912Z,39.67
2022-12-20T04:09:12.792Z,34.30
2022-12-20T04:11:44.401Z,45.25
2022-12-20T04:14:14.128Z,47.08
2022-12-20T04:16:42.799Z,34.58
2022-12-20T04:19:11.578Z,21.62
2022-12-20T04:21:41.848Z,16.07
2022-12-20T04:24:10.834Z,12.60
2022-12-20T04:26:43.165Z,10.43
2022-12-20T04:29:11.276Z,10.75
2022-12-20T04:31:39.799Z,29.95
2022-12-20T04:34:07.818Z,16.87
2022-12-20T04:36:35.867Z,17.90
2022-12-20T04:39:05.529Z,18.10
2022-12-20T04:41:34.857Z,15.63
2022-12-20T04:44:04.662Z,15.43
2022-12-20T04:46:37.286Z,15.20
2022-12-20T04:49:07.028Z,20.15
2022-12-20T04:51:35.125Z,17.87
2022-12-20T04:54:03.031Z,19.48
2022-12-20T04:56:32.815Z,21.70
2022-12-20T04:59:02.820Z,24.92
2022-12-20T05:01:32.696Z,25.23
2022-12-20T05:04:00.540Z,22.22
2022-12-20T05:06:30.027Z,19.73
2022-12-20T05:08:57.958Z,17.92
2022-12-20T05:11:25.766Z,23.87
2022-12-20T05:13:53.399Z,19.10
2022-12-20T05:16:21.553Z,17.05
2022-12-20T05:18:49.979Z,14.85
2022-12-20T05:21:36.822Z,17.50
2022-12-20T05:24:24.906Z,19.12
2022-12-20T05:26:54.549Z,17.37
2022-12-20T05:29:22.246Z,20.68
2022-12-20T05:31:50.400Z,25.50
2022-12-20T05:34:18.586Z,23.35
2022-12-20T05:36:47.903Z,28.67
2022-12-20T05:39:15.708Z,49.48
2022-12-20T05:41:43.525Z,67.97
2022-12-20T05:44:11.566Z,68.75
2022-12-20T05:46:41.185Z,74.27
2022-12-20T05:49:10.634Z,62.27
2022-12-20T05:51:38.463Z,58.63
2022-12-20T05:54:20.832Z,55.15
2022-12-20T05:56:50.519Z,36.88
2022-12-20T05:59:20.453Z,30.85
2022-12-20T06:01:48.021Z,26.95
2022-12-20T06:04:16.125Z,22.42
2022-12-20T06:06:44.942Z,28.40
2022-12-20T06:09:12.755Z,27.98
2022-12-20T06:11:42.359Z,36.15
2022-12-20T06:14:11.828Z,25.65
2022-12-20T06:16:41.469Z,24.00
2022-12-20T06:19:14.667Z,26.40
2022-12-20T06:21:41.792Z,22.17
2022-12-20T06:24:11.542Z,37.73
2022-12-20T06:26:41.151Z,42.08
2022-12-20T06:29:12.208Z,59.38
2022-12-20T06:31:44.408Z,64.62
2022-12-20T06:34:12.004Z,76.05
2022-12-20T06:36:41.629Z,91.42
2022-12-20T06:39:11.167Z,105.15
2022-12-20T06:41:41.055Z,124.78
2022-12-20T06:44:08.790Z,111.22
2022-12-20T06:46:36.451Z,95.70
2022-12-20T06:49:04.410Z,78.40
2022-12-20T06:51:32.907Z,78.12
2022-12-20T06:54:03.333Z,91.95
2022-12-20T06:56:39.258Z,68.75
2022-12-20T06:59:02.242Z,66.22
2022-12-20T07:01:29.891Z,56.23
2022-12-20T07:03:57.832Z,56.77
2022-12-20T07:06:26.512Z,75.50
2022-12-20T07:08:54.243Z,51.83
2022-12-20T07:11:22.367Z,56.73
2022-12-20T07:13:53.596Z,46.88
2022-12-20T07:16:21.343Z,51.90
2022-12-20T07:18:53.960Z,45.30
2022-12-20T07:21:21.911Z,41.28
2022-12-20T07:23:49.252Z,40.10
2022-12-20T07:26:16.882Z,38.38
2022-12-20T07:28:44.670Z,37.55
2022-12-20T07:31:12.496Z,40.70
2022-12-20T07:33:40.149Z,39.30
2022-12-20T07:36:13.800Z,41.37
2022-12-20T07:41:11.687Z,40.88
2022-12-20T07:43:39.768Z,45.03
2022-12-20T07:46:08.383Z,39.48
2022-12-20T07:48:36.388Z,32.03
2022-12-20T07:51:12.306Z,32.75
2022-12-20T07:53:47.843Z,37.73
2022-12-20T07:56:16.529Z,40.28
2022-12-20T07:58:44.855Z,46.50
2022-12-20T08:01:13.112Z,45.67
2022-12-20T08:03:45.852Z,44.13
2022-12-20T08:06:15.498Z,33.42
2022-12-20T08:08:47.666Z,24.77
2022-12-20T08:11:16.786Z,23.87
2022-12-20T08:13:46.794Z,23.70
2022-12-20T08:16:14.442Z,24.40
2022-12-20T08:18:42.401Z,22.87
2022-12-20T08:21:11.974Z,23.25
2022-12-20T08:23:40.048Z,20.08
2022-12-20T08:26:08.124Z,25.20
2022-12-20T08:28:36.279Z,36.48
2022-12-20T08:31:08.013Z,30.82
2022-12-20T08:33:37.923Z,23.98
2022-12-20T08:36:09.898Z,24.98
2022-12-20T08:38:38.145Z,38.45
2022-12-20T08:41:10.350Z,46.10
2022-12-20T08:43:39.629Z,26.35
2022-12-20T08:46:10.390Z,22.37
2022-12-20T08:48:38.243Z,26.07
2022-12-20T08:51:09.092Z,30.23
2022-12-20T08:53:37.980Z,29.70
2022-12-20T08:56:15.758Z,32.15
2022-12-20T08:58:44.906Z,33.18
2022-12-20T09:01:16.906Z,36.10
2022-12-20T09:03:45.837Z,41.53
2022-12-20T09:06:19.327Z,35.98
2022-12-20T09:08:48.315Z,33.20
2022-12-20T09:11:20.367Z,40.83
2022-12-20T09:13:51.155Z,41.90
2022-12-20T09:16:21.914Z,34.45
2022-12-20T09:18:52.135Z,37.50
2022-12-20T09:21:20.258Z,38.85
2022-12-20T09:23:53.939Z,42.48
2022-12-20T09:26:23.236Z,49.63
2022-12-20T09:28:51.938Z,41.10
2022-12-20T09:31:24.016Z,39.15
2022-12-20T09:33:54.989Z,34.63
2022-12-20T09:36:26.195Z,29.72
2022-12-20T09:38:54.972Z,31.97
2022-12-20T09:41:42.594Z,35.92
2022-12-20T09:44:21.831Z,31.90
2022-12-20T09:47:03.535Z,38.20
2022-12-20T09:49:33.656Z,31.33
2022-12-20T09:52:19.390Z,33.75
2022-12-20T09:55:22.295Z,35.85
2022-12-20T09:58:19.646Z,33.67
2022-12-20T10:00:53.777Z,35.43
2022-12-20T10:03:26.516Z,30.40
2022-12-20T10:06:02.214Z,34.35
2022-12-20T10:08:54.106Z,33.88
2022-12-20T10:11:42.050Z,32.30
2022-12-20T10:14:33.980Z,35.73
2022-12-20T10:17:26.194Z,31.17
2022-12-20T10:20:34.008Z,35.98
2022-12-20T10:23:39.187Z,36.88
2022-12-20T10:26:12.919Z,45.78
2022-12-20T10:28:40.831Z,40.25
2022-12-20T10:31:13.510Z,40.63
2022-12-20T10:33:42.158Z,43.33
2022-12-20T10:36:31.756Z,38.70
2022-12-20T10:39:02.710Z,34.50
2022-12-20T10:41:45.067Z,39.67
2022-12-20T10:44:25.878Z,41.20
2022-12-20T10:46:59.615Z,41.30
2022-12-20T10:52:13.595Z,32.00
2022-12-20T10:54:45.256Z,34.45
2022-12-20T10:57:28.491Z,33.53
2022-12-20T11:00:05.902Z,41.15
2022-12-20T11:02:42.300Z,37.35
2022-12-20T11:05:17.014Z,49.55
2022-12-20T11:08:34.681Z,38.33
2022-12-20T11:10:37.559Z,44.50
2022-12-20T11:13:06.058Z,40.90
2022-12-20T11:15:36.149Z,36.77
2022-12-20T11:18:14.880Z,39.45
2022-12-20T11:21:16.975Z,35.60
2022-12-20T11:23:47.844Z,38.25
2022-12-20T11:26:58.881Z,39.55
2022-12-20T11:29:44.487Z,35.55
2022-12-20T11:32:48.338Z,33.58
2022-12-20T11:35:38.823Z,31.27
2022-12-20T11:41:04.696Z,34.23
2022-12-20T11:44:27.770Z,37.08
2022-12-20T11:47:06.519Z,36.70
2022-12-20T11:50:15.018Z,36.45
2022-12-20T11:52:53.820Z,41.60
2022-12-20T11:55:32.595Z,40.73
2022-12-20T11:58:23.756Z,39.65
2022-12-20T12:00:39.915Z,39.95
2022-12-20T12:03:28.034Z,39.05
2022-12-20T12:06:18.293Z,44.42
2022-12-20T12:08:59.812Z,43.10
2022-12-20T12:12:05.243Z,45.43
2022-12-20T12:14:04.723Z,45.83
2022-12-20T12:16:39.718Z,47.10
2022-12-20T12:19:12.944Z,48.10
2022-12-20T12:21:46.132Z,63.28
2022-12-20T12:24:30.021Z,50.52
2022-12-20T12:26:59.507Z,52.05
2022-12-20T12:29:29.841Z,48.87
2022-12-20T12:32:08.460Z,45.12
2022-12-20T12:34:59.589Z,42.88
2022-12-20T12:37:55.780Z,37.35
2022-12-20T12:41:03.985Z,41.15
2022-12-20T12:43:55.907Z,41.63
2022-12-20T12:46:28.211Z,37.50
2022-12-20T12:49:10.644Z,37.63
2022-12-20T12:51:44.709Z,37.08
2022-12-20T12:54:25.954Z,34.90
2022-12-20T12:57:13.657Z,30.57
2022-12-20T12:59:48.048Z,33.08
2022-12-20T13:02:21.422Z,30.62
2022-12-20T13:07:45.385Z,31.80
2022-12-20T13:10:23.029Z,27.20
2022-12-20T13:12:58.376Z,28.47
2022-12-20T13:15:32.147Z,39.80
2022-12-20T13:20:40.101Z,29.75
2022-12-20T13:23:17.653Z,34.90
2022-12-20T13:25:53.846Z,24.82
2022-12-20T13:28:30.007Z,31.52
2022-12-20T13:31:11.893Z,40.03
2022-12-20T13:33:43.627Z,50.23
2022-12-20T13:36:25.787Z,42.20
2022-12-20T13:38:56.560Z,37.88
2022-12-20T13:41:47.646Z,35.92
2022-12-20T13:44:20.696Z,31.68
2022-12-20T13:47:09.543Z,32.63
2022-12-20T13:49:42.627Z,28.50
2022-12-20T13:52:32.809Z,32.28
2022-12-20T13:55:05.857Z,44.23
2022-12-20T13:57:44.443Z,40.33
2022-12-20T14:00:18.805Z,69.72
2022-12-20T14:02:47.071Z,31.85
2022-12-20T14:05:24.932Z,36.83
2022-12-20T14:08:03.733Z,46.77
2022-12-20T14:10:33.597Z,42.80
2022-12-20T14:13:01.725Z,43.58
2022-12-20T14:15:35.423Z,45.12
2022-12-20T14:20:37.430Z,72.20
2022-12-20T14:23:15.984Z,90.05
2022-12-20T14:25:51.874Z,88.33
2022-12-20T14:28:39.123Z,77.78
2022-12-20T14:31:23.540Z,61.18
2022-12-20T14:33:52.054Z,62.80
2022-12-20T14:36:21.285Z,84.07
2022-12-20T14:38:52.024Z,98.55
2022-12-20T14:41:37.023Z,97.67
2022-12-20T14:44:20.902Z,82.02
2022-12-20T14:46:56.530Z,88.95
2022-12-20T14:49:30.992Z,90.25
2022-12-20T14:52:31.077Z,61.65
2022-12-20T14:55:21.886Z,130.05
2022-12-20T14:57:55.804Z,85.25
2022-12-20T15:00:28.830Z,90.70
2022-12-20T15:03:05.004Z,82.92
2022-12-20T15:05:41.348Z,76.25
2022-12-20T15:08:31.563Z,159.95
2022-12-20T15:11:10.458Z,177.27
2022-12-20T15:13:46.289Z,105.50
2022-12-20T15:16:23.847Z,117.45
2022-12-20T15:18:58.603Z,130.37
2022-12-20T15:21:33.219Z,132.82
2022-12-20T15:24:08.514Z,160.32
2022-12-20T15:26:37.072Z,158.45
2022-12-20T15:29:06.048Z,133.35
2022-12-20T15:31:36.317Z,144.57
2022-12-20T15:34:13.864Z,143.22
2022-12-20T15:36:41.628Z,135.52
2022-12-20T15:39:13.839Z,127.38
2022-12-20T15:41:46.721Z,125.17
2022-12-20T15:44:26.929Z,111.47
2022-12-20T15:46:54.728Z,129.12
2022-12-20T15:49:29.559Z,131.78
2022-12-20T15:51:57.674Z,140.60
2022-12-20T15:54:29.553Z,203.65
2022-12-20T15:57:01.962Z,150.75
2022-12-20T16:02:00.770Z,180.12
2022-12-20T16:04:28.519Z,151.75
2022-12-20T16:06:56.208Z,132.67
2022-12-20T16:09:25.506Z,130.82
2022-12-20T16:11:53.119Z,133.35
2022-12-20T16:14:21.416Z,127.17
2022-12-20T16:16:49.805Z,115.05
2022-12-20T16:19:18.782Z,131.20
2022-12-20T16:21:50.699Z,143.10
2022-12-20T16:24:20.401Z,154.82
2022-12-20T16:26:51.159Z,134.97
2022-12-20T16:29:19.035Z,137.72
2022-12-20T16:31:46.371Z,140.50
2022-12-20T16:34:17.056Z,155.87
2022-12-20T16:36:46.007Z,179.70
2022-12-20T16:39:13.928Z,201.00
2022-12-20T16:41:43.726Z,212.88
2022-12-20T16:44:16.634Z,174.50
2022-12-20T16:46:45.086Z,89.80
2022-12-20T16:49:19.971Z,93.45
2022-12-20T16:51:46.060Z,93.07
2022-12-20T16:54:22.446Z,99.92
2022-12-20T16:56:54.035Z,124.65
2022-12-20T16:59:24.757Z,128.57
2022-12-20T17:01:54.953Z,131.90
2022-12-20T17:04:24.028Z,151.42
2022-12-20T17:06:51.647Z,168.05
2022-12-20T17:09:20.052Z,151.20
2022-12-20T17:11:49.441Z,125.42
2022-12-20T17:14:19.115Z,125.20
2022-12-20T17:16:46.997Z,121.00
2022-12-20T17:19:14.464Z,110.72
2022-12-20T17:24:34.719Z,112.83
2022-12-20T17:27:02.672Z,122.98
2022-12-20T17:29:30.456Z,116.37
2022-12-20T17:31:58.154Z,134.82
2022-12-20T17:34:30.440Z,118.50
2022-12-20T17:36:58.697Z,134.43
2022-12-20T17:39:26.511Z,100.58
2022-12-20T17:41:55.325Z,97.55
2022-12-20T17:44:26.391Z,92.00
2022-12-20T17:46:55.977Z,94.65
2022-12-20T17:49:24.415Z,96.47
2022-12-20T17:51:52.100Z,80.05
2022-12-20T17:54:25.797Z,83.65
2022-12-20T17:56:53.652Z,90.32
2022-12-20T17:59:22.021Z,100.20
2022-12-20T18:01:49.872Z,125.40
2022-12-20T18:04:18.028Z,97.62
2022-12-20T18:06:46.644Z,120.70
2022-12-20T18:09:18.283Z,137.40
2022-12-20T18:11:47.289Z,156.80
2022-12-20T18:14:15.438Z,139.30
2022-12-20T18:16:43.713Z,144.95
2022-12-20T18:19:18.491Z,146.02
2022-12-20T18:21:46.334Z,150.60
2022-12-20T18:24:15.834Z,211.25
2022-12-20T18:26:44.517Z,198.13
2022-12-20T18:29:12.215Z,186.65
2022-12-20T18:31:40.046Z,150.97
2022-12-20T18:34:07.817Z,161.45
2022-12-20T18:36:37.327Z,195.82
2022-12-20T18:39:07.602Z,164.10
2022-12-20T18:41:35.419Z,119.20
2022-12-20T18:44:06.401Z,110.28
2022-12-20T18:46:34.161Z,119.00
2022-12-20T18:49:03.373Z,96.35
2022-12-20T18:51:37.853Z,117.13
2022-12-20T18:54:07.982Z,113.83
2022-12-20T18:56:37.857Z,109.67
2022-12-20T18:59:12.106Z,103.38
2022-12-20T19:01:38.415Z,122.60
2022-12-20T19:04:07.673Z,123.85
2022-12-20T19:06:36.982Z,134.25
2022-12-20T19:09:10.038Z,138.43
2022-12-20T19:11:37.875Z,150.27
2022-12-20T19:14:07.081Z,165.55
2022-12-20T19:16:35.493Z,134.05
2022-12-20T19:19:04.042Z,137.05
2022-12-20T19:21:34.732Z,133.07
2022-12-20T19:24:06.345Z,151.75
2022-12-20T19:26:36.185Z,144.10
2022-12-20T19:29:06.529Z,139.07
2022-12-20T19:31:36.975Z,145.92
2022-12-20T19:34:09.786Z,147.20
2022-12-20T19:36:41.713Z,144.02
2022-12-20T19:39:22.775Z,164.03
2022-12-20T19:42:21.801Z,143.17
2022-12-20T19:44:21.146Z,156.35
2022-12-20T19:46:48.559Z,324.35
2022-12-20T19:49:16.462Z,264.70
2022-12-20T19:51:44.221Z,203.80
2022-12-20T19:54:11.905Z,193.30
2022-12-20T19:56:39.744Z,220.90
2022-12-20T19:59:11.419Z,205.40
2022-12-20T20:01:39.260Z,212.10
2022-12-20T20:04:08.944Z,237.25
2022-12-20T20:06:36.502Z,242.37
2022-12-20T20:09:04.144Z,272.48
2022-12-20T20:11:31.832Z,258.43
2022-12-20T20:14:01.381Z,234.65
2022-12-20T20:16:29.175Z,223.62
2022-12-20T20:18:57.432Z,188.47
2022-12-20T20:21:25.377Z,184.13
2022-12-20T20:23:54.419Z,190.60
2022-12-20T20:26:26.147Z,199.65
2022-12-20T20:28:53.927Z,214.05
2022-12-20T20:31:22.218Z,223.82
2022-12-20T20:33:50.347Z,216.93
2022-12-20T20:36:21.655Z,203.98
2022-12-20T20:38:51.787Z,180.35
2022-12-20T20:41:19.691Z,165.10
2022-12-20T20:43:47.521Z,154.65
2022-12-20T20:46:17.238Z,151.40
2022-12-20T20:48:45.799Z,244.60
2022-12-20T20:51:13.815Z,198.32
2022-12-20T20:53:41.873Z,233.82
2022-12-20T20:56:10.220Z,150.90
2022-12-20T20:58:38.341Z,146.02
2022-12-20T21:01:08.855Z,160.37
2022-12-20T21:03:37.630Z,171.90
2022-12-20T21:06:39.194Z,150.35
2022-12-20T21:08:36.935Z,160.32
2022-12-20T21:11:07.002Z,172.60
2022-12-20T21:13:34.927Z,209.77
2022-12-20T21:16:13.257Z,192.98
2022-12-20T21:18:41.189Z,213.77
2022-12-20T21:21:11.964Z,205.18
2022-12-20T21:23:45.783Z,197.62
2022-12-20T21:26:15.461Z,198.65
2022-12-20T21:28:43.587Z,210.00
2022-12-20T21:31:15.836Z,225.00
2022-12-20T21:33:47.483Z,222.07
2022-12-20T21:36:18.561Z,215.85
2022-12-20T21:38:55.873Z,256.00
2022-12-20T21:41:27.404Z,229.80
2022-12-20T21:43:57.697Z,237.65
2022-12-20T21:46:28.657Z,238.62
2022-12-20T21:48:56.235Z,226.98
2022-12-20T21:51:25.920Z,217.25
2022-12-20T21:53:57.538Z,205.92
2022-12-20T21:56:27.624Z,197.82
2022-12-20T21:58:55.601Z,173.25
2022-12-20T22:01:26.202Z,171.13
2022-12-20T22:04:01.127Z,190.12
2022-12-20T22:06:29.121Z,153.53
2022-12-20T22:09:00.104Z,143.37
2022-12-20T22:11:28.718Z,172.32
2022-12-20T22:13:56.743Z,166.95
2022-12-20T22:16:29.573Z,188.25
2022-12-20T22:18:58.710Z,195.30
2022-12-20T22:21:29.975Z,201.10
2022-12-20T22:23:59.442Z,180.48
2022-12-20T22:26:30.360Z,169.05
2022-12-20T22:29:04.768Z,167.98
2022-12-20T22:31:33.196Z,147.13
2022-12-20T22:34:01.408Z,159.45
2022-12-20T22:36:29.068Z,153.10
2022-12-20T22:38:57.907Z,161.73
2022-12-20T22:41:29.351Z,145.65
2022-12-20T22:44:00.212Z,141.12
2022-12-20T22:46:28.900Z,154.95
2022-12-20T22:49:00.812Z,144.00
2022-12-20T22:51:33.992Z,154.23
2022-12-20T22:54:01.914Z,149.75
2022-12-20T22:56:29.520Z,152.38
2022-12-20T22:58:57.287Z,145.82
2022-12-20T23:01:25.525Z,142.28
2022-12-20T23:03:53.674Z,145.12
2022-12-20T23:06:21.923Z,144.35
2022-12-20T23:08:49.864Z,136.20
2022-12-20T23:11:42.362Z,131.00
2022-12-20T23:14:37.641Z,149.40
2022-12-20T23:17:08.625Z,155.95
2022-12-20T23:19:55.074Z,143.93
2022-12-20T23:22:41.332Z,155.70
2022-12-20T23:25:16.086Z,146.85
2022-12-20T23:27:46.818Z,104.53
2022-12-20T23:30:17.950Z,86.25
2022-12-20T23:32:46.155Z,76.65
2022-12-20T23:35:17.653Z,77.87
2022-12-20T23:37:45.802Z,74.15
2022-12-20T23:40:15.825Z,85.22
2022-12-20T23:42:44.608Z,112.55
2022-12-20T23:45:12.735Z,123.85
2022-12-20T23:47:40.092Z,139.57
2022-12-20T23:50:09.037Z,132.90
2022-12-20T23:52:36.589Z,113.50
2022-12-20T23:55:05.709Z,124.78
2022-12-20T23:57:33.487Z,116.97
